Time;durP1;ratioP1;P1;durP2;ratioP2;P2;SDS_P1;SDS_P2;PMS_P1;PMS_P2;Temp;Humidity;BMP_temperature;BMP_pressure;BME280_temperature;BME280_humidity;BME280_pressure;Samples;Min_cycle;Max_cycle;Signal;HPM_P1;HPM_P2
2023/05/07 00:02:16;;;;;;;38.33;23.40;;;9.80;99.90;;;;;;5135567;27;20197;-84
2023/05/07 00:04:43;;;;;;;40.07;23.50;;;9.80;99.90;;;;;;5149443;27;20205;-85
2023/05/07 00:07:10;;;;;;;38.13;23.43;;;9.80;99.90;;;;;;5127806;27;20192;-84
2023/05/07 00:09:37;;;;;;;41.27;23.70;;;9.80;99.90;;;;;;5153836;27;20220;-85
2023/05/07 00:12:04;;;;;;;43.77;25.37;;;9.80;99.90;;;;;;5136328;27;20682;-85
2023/05/07 00:14:31;;;;;;;39.40;23.87;;;9.80;99.90;;;;;;5138394;27;20208;-84
2023/05/07 00:16:59;;;;;;;41.80;23.80;;;9.80;99.90;;;;;;5133581;27;20204;-86
2023/05/07 00:19:26;;;;;;;44.50;25.63;;;9.80;99.90;;;;;;5122303;27;20208;-87
2023/05/07 00:21:53;;;;;;;43.40;24.60;;;9.80;99.90;;;;;;5117925;27;20244;-86
2023/05/07 00:24:20;;;;;;;45.70;24.90;;;9.90;99.90;;;;;;5121711;27;20574;-86
2023/05/07 00:26:47;;;;;;;39.03;23.30;;;9.80;99.90;;;;;;5132263;27;20754;-86
2023/05/07 00:29:14;;;;;;;43.10;25.27;;;9.80;99.90;;;;;;5136537;27;20196;-86
2023/05/07 00:31:40;;;;;;;45.83;24.93;;;9.90;99.90;;;;;;5136733;27;20224;-85
2023/05/07 00:34:08;;;;;;;40.20;24.07;;;9.80;99.90;;;;;;5135391;27;20201;-85
2023/05/07 00:36:35;;;;;;;43.40;24.33;;;9.90;99.90;;;;;;5126497;27;20201;-86
2023/05/07 00:39:03;;;;;;;42.23;24.27;;;9.90;99.90;;;;;;5135634;27;20642;-84
2023/05/07 00:41:30;;;;;;;43.13;22.73;;;9.80;99.90;;;;;;5118588;27;20213;-84
2023/05/07 00:43:57;;;;;;;43.57;23.30;;;9.80;99.90;;;;;;5122921;27;20192;-85
2023/05/07 00:46:25;;;;;;;42.73;23.00;;;9.70;99.90;;;;;;5136155;27;20203;-86
2023/05/07 00:48:53;;;;;;;45.73;23.93;;;9.70;99.90;;;;;;5132916;27;20197;-85
2023/05/07 00:51:21;;;;;;;45.37;24.63;;;9.70;99.90;;;;;;5116495;27;20216;-85
2023/05/07 00:53:48;;;;;;;41.47;21.97;;;9.70;99.90;;;;;;5128254;27;20196;-86
2023/05/07 00:56:15;;;;;;;46.73;25.97;;;9.60;99.90;;;;;;5125662;27;20200;-85
2023/05/07 00:58:42;;;;;;;45.90;21.93;;;9.70;99.90;;;;;;5117276;27;20205;-85
2023/05/07 01:01:09;;;;;;;46.43;24.37;;;9.60;99.90;;;;;;5119955;27;20300;-85
2023/05/07 01:03:36;;;;;;;45.67;23.00;;;9.50;99.90;;;;;;5137889;27;20220;-86
2023/05/07 01:06:05;;;;;;;45.87;25.27;;;9.50;99.90;;;;;;5136003;27;20208;-86
2023/05/07 01:08:34;;;;;;;44.43;23.67;;;9.60;99.90;;;;;;5134098;27;20666;-85
2023/05/07 01:11:02;;;;;;;44.27;22.97;;;9.60;99.90;;;;;;5127201;27;20259;-87
2023/05/07 01:13:29;;;;;;;45.00;23.37;;;9.60;99.90;;;;;;5124004;27;20205;-86
2023/05/07 01:15:55;;;;;;;41.33;22.83;;;9.60;99.90;;;;;;5125996;27;20211;-86
2023/05/07 01:18:23;;;;;;;46.27;23.03;;;9.60;99.90;;;;;;5135487;27;20200;-86
2023/05/07 01:20:49;;;;;;;43.43;23.87;;;9.50;99.90;;;;;;5128830;27;20227;-85
2023/05/07 01:23:18;;;;;;;45.03;23.17;;;9.50;99.90;;;;;;5116734;28;20208;-87
2023/05/07 01:25:52;;;;;;;40.97;23.40;;;9.60;99.90;;;;;;5125874;27;20196;-86
2023/05/07 01:28:19;;;;;;;44.53;22.87;;;9.50;99.90;;;;;;5137667;27;20200;-86
2023/05/07 01:30:49;;;;;;;39.57;21.33;;;9.50;99.90;;;;;;5136712;27;20250;-85
2023/05/07 01:33:19;;;;;;;39.40;21.10;;;9.60;99.90;;;;;;5134593;27;20225;-86
2023/05/07 01:35:50;;;;;;;42.23;23.07;;;9.60;99.90;;;;;;5117604;27;20564;-86
2023/05/07 01:38:19;;;;;;;38.93;20.80;;;9.70;99.90;;;;;;5126356;27;20208;-86
2023/05/07 01:40:46;;;;;;;40.97;21.60;;;9.50;99.90;;;;;;5118699;27;20225;-87
2023/05/07 01:43:13;;;;;;;37.73;20.47;;;9.50;99.90;;;;;;5125309;27;20206;-87
2023/05/07 01:45:41;;;;;;;37.60;20.97;;;9.50;99.90;;;;;;5126680;27;20203;-85
2023/05/07 01:48:09;;;;;;;41.13;20.73;;;9.60;99.90;;;;;;5123764;27;20208;-86
2023/05/07 01:50:40;;;;;;;37.87;20.43;;;9.60;99.90;;;;;;5130320;27;20227;-87
2023/05/07 01:53:07;;;;;;;34.90;18.70;;;9.60;99.90;;;;;;5114414;28;20197;-86
2023/05/07 01:55:36;;;;;;;34.37;17.57;;;9.60;99.90;;;;;;5114609;27;20207;-86
2023/05/07 01:58:03;;;;;;;34.57;18.20;;;9.60;99.90;;;;;;5131459;27;20196;-86
2023/05/07 02:00:30;;;;;;;35.13;19.80;;;9.60;99.90;;;;;;5126588;27;20221;-85
2023/05/07 02:02:57;;;;;;;32.57;17.13;;;9.60;99.90;;;;;;5129558;27;20224;-85
2023/05/07 02:05:24;;;;;;;38.13;18.90;;;9.60;99.90;;;;;;5133515;27;20256;-85
2023/05/07 02:07:50;;;;;;;32.43;18.13;;;9.60;99.90;;;;;;5133717;27;20200;-85
2023/05/07 02:10:17;;;;;;;30.73;16.37;;;9.60;99.90;;;;;;5128407;27;20213;-85
2023/05/07 02:12:45;;;;;;;29.67;16.83;;;9.70;99.90;;;;;;5114325;27;20243;-86
2023/05/07 02:15:12;;;;;;;32.83;18.67;;;9.60;99.90;;;;;;5117616;27;20203;-85
2023/05/07 02:17:58;;;;;;;30.80;18.00;;;9.70;99.90;;;;;;5133820;27;20203;-85
2023/05/07 02:20:25;;;;;;;30.97;17.60;;;9.70;99.90;;;;;;5118694;27;20228;-85
2023/05/07 02:22:52;;;;;;;31.13;17.17;;;9.80;99.90;;;;;;5114649;27;20189;-85
2023/05/07 02:25:18;;;;;;;32.03;17.17;;;9.70;99.90;;;;;;5118105;27;20580;-85
2023/05/07 02:27:47;;;;;;;27.23;15.97;;;9.70;99.90;;;;;;5133775;27;20586;-87
2023/05/07 02:30:14;;;;;;;31.60;16.83;;;9.70;99.90;;;;;;5129100;27;20209;-86
2023/05/07 02:32:41;;;;;;;27.93;17.10;;;9.70;99.90;;;;;;5114290;27;20303;-86
2023/05/07 02:35:08;;;;;;;31.00;16.97;;;9.70;99.90;;;;;;5115894;27;20192;-85
2023/05/07 02:37:35;;;;;;;28.20;15.50;;;9.70;99.90;;;;;;5133824;27;20674;-86
2023/05/07 02:40:03;;;;;;;27.50;16.53;;;9.70;99.90;;;;;;5116295;27;20225;-86
2023/05/07 02:42:30;;;;;;;29.10;16.10;;;9.70;99.90;;;;;;5133875;27;20192;-86
2023/05/07 02:44:58;;;;;;;27.03;16.40;;;9.70;99.90;;;;;;5125964;27;20212;-87
2023/05/07 02:47:26;;;;;;;27.57;16.23;;;9.70;99.90;;;;;;5123954;27;20204;-86
2023/05/07 02:49:53;;;;;;;25.53;14.70;;;9.70;99.90;;;;;;5122358;27;20220;-85
2023/05/07 02:52:20;;;;;;;26.87;15.20;;;9.70;99.90;;;;;;5132215;27;20223;-84
2023/05/07 02:54:47;;;;;;;27.17;15.93;;;9.70;99.90;;;;;;5132447;27;20230;-85
2023/05/07 02:57:13;;;;;;;27.23;16.47;;;9.80;99.90;;;;;;5117888;27;20230;-85
2023/05/07 02:59:40;;;;;;;28.97;16.30;;;9.80;99.90;;;;;;5131737;28;20247;-85
2023/05/07 03:02:08;;;;;;;29.80;16.87;;;9.60;99.90;;;;;;5130226;28;20207;-85
2023/05/07 03:04:35;;;;;;;33.07;18.67;;;9.60;99.90;;;;;;5135690;28;20289;-87
2023/05/07 03:07:02;;;;;;;31.60;18.63;;;9.60;99.90;;;;;;5121046;28;20203;-85
2023/05/07 03:09:29;;;;;;;34.43;20.07;;;9.50;99.90;;;;;;5117463;28;20207;-86
2023/05/07 03:11:57;;;;;;;35.77;20.63;;;9.60;99.90;;;;;;5116400;28;20248;-87
2023/05/07 03:14:24;;;;;;;35.93;20.20;;;9.60;99.90;;;;;;5129634;28;20200;-86
2023/05/07 03:16:53;;;;;;;35.40;18.97;;;9.60;99.90;;;;;;5118871;28;20610;-85
2023/05/07 03:19:21;;;;;;;33.90;20.03;;;9.50;99.90;;;;;;5122223;27;20195;-86
2023/05/07 03:21:47;;;;;;;33.50;18.37;;;9.50;99.90;;;;;;5139619;27;20202;-85
2023/05/07 03:24:14;;;;;;;31.83;18.47;;;9.50;99.90;;;;;;5137801;27;20609;-85
2023/05/07 03:26:41;;;;;;;34.97;20.00;;;9.40;99.90;;;;;;5137406;27;20207;-85
2023/05/07 03:29:08;;;;;;;33.67;19.73;;;9.60;99.90;;;;;;5137422;27;20206;-85
2023/05/07 03:31:34;;;;;;;32.90;20.07;;;9.60;99.90;;;;;;5129654;27;20666;-84
2023/05/07 03:34:04;;;;;;;33.50;18.67;;;9.50;99.90;;;;;;5123869;27;20207;-85
2023/05/07 03:36:32;;;;;;;32.07;18.60;;;9.40;99.90;;;;;;5130057;27;20196;-84
2023/05/07 03:38:59;;;;;;;32.60;19.17;;;9.40;99.90;;;;;;5137001;27;20197;-85
2023/05/07 03:41:26;;;;;;;30.80;18.17;;;9.40;99.90;;;;;;5134534;27;20314;-85
2023/05/07 03:43:53;;;;;;;32.17;18.90;;;9.40;99.90;;;;;;5131355;27;20203;-85
2023/05/07 03:46:20;;;;;;;30.23;17.63;;;9.40;99.90;;;;;;5136658;27;20193;-85
2023/05/07 03:48:46;;;;;;;31.67;18.33;;;9.40;99.90;;;;;;5135679;27;20634;-85
2023/05/07 03:51:13;;;;;;;29.00;16.57;;;9.40;99.90;;;;;;5128249;27;20238;-84
2023/05/07 03:53:41;;;;;;;33.20;18.47;;;9.40;99.90;;;;;;5125995;27;20300;-85
2023/05/07 03:56:08;;;;;;;35.10;19.23;;;9.40;99.90;;;;;;5122710;27;20204;-85
2023/05/07 03:58:35;;;;;;;34.03;19.27;;;9.30;99.90;;;;;;5129059;27;20204;-85
2023/05/07 04:01:02;;;;;;;30.37;18.07;;;9.40;99.90;;;;;;5119647;27;20272;-85
2023/05/07 04:03:29;;;;;;;29.63;17.83;;;9.40;99.90;;;;;;5128944;27;20196;-84
2023/05/07 04:05:56;;;;;;;30.67;17.03;;;9.30;99.90;;;;;;5118499;27;20243;-85
2023/05/07 04:08:22;;;;;;;29.27;16.60;;;9.30;99.90;;;;;;5119391;27;20238;-86
2023/05/07 04:10:55;;;;;;;29.87;16.43;;;9.30;99.90;;;;;;5129341;27;20216;-85
2023/05/07 04:13:22;;;;;;;31.43;16.63;;;9.20;99.90;;;;;;5124666;27;20226;-83
2023/05/07 04:15:49;;;;;;;30.77;16.80;;;9.20;99.90;;;;;;5130026;27;20197;-84
2023/05/07 04:18:16;;;;;;;32.10;18.13;;;9.20;99.90;;;;;;5125708;27;20205;-85
2023/05/07 04:20:43;;;;;;;26.13;15.27;;;9.20;99.90;;;;;;5123853;27;20217;-85
2023/05/07 04:23:10;;;;;;;31.83;18.60;;;9.30;99.90;;;;;;5125206;27;20203;-84
2023/05/07 04:25:37;;;;;;;28.97;16.50;;;9.20;99.90;;;;;;5134407;27;20207;-85
2023/05/07 04:28:05;;;;;;;29.97;16.83;;;9.20;99.90;;;;;;5128151;27;20201;-85
2023/05/07 04:30:32;;;;;;;26.63;15.57;;;9.30;99.90;;;;;;5120213;27;20232;-86
2023/05/07 04:32:59;;;;;;;27.83;16.47;;;9.30;99.90;;;;;;5124276;27;20220;-84
2023/05/07 04:35:26;;;;;;;27.07;15.00;;;9.30;99.90;;;;;;5133361;27;20693;-86
2023/05/07 04:37:53;;;;;;;25.83;15.70;;;9.30;99.90;;;;;;5126037;27;20205;-85
2023/05/07 04:40:19;;;;;;;28.87;15.60;;;9.30;99.90;;;;;;5127409;27;20239;-87
2023/05/07 04:42:46;;;;;;;25.23;14.53;;;9.30;99.90;;;;;;5137558;27;20201;-86
2023/05/07 04:45:15;;;;;;;26.00;14.90;;;9.30;99.90;;;;;;5127105;27;20205;-85
2023/05/07 04:47:41;;;;;;;26.47;14.63;;;9.30;99.90;;;;;;5121525;27;20208;-85
2023/05/07 04:50:09;;;;;;;26.60;14.57;;;9.30;99.90;;;;;;5123479;27;20212;-83
2023/05/07 04:52:36;;;;;;;28.77;15.03;;;9.30;99.90;;;;;;5123770;27;20220;-84
2023/05/07 04:55:02;;;;;;;24.20;13.80;;;9.40;99.90;;;;;;5122785;27;20293;-85
2023/05/07 04:57:29;;;;;;;28.43;15.33;;;9.40;99.90;;;;;;5126421;27;20192;-85
2023/05/07 04:59:56;;;;;;;28.00;15.50;;;9.40;99.90;;;;;;5121817;27;20221;-84
2023/05/07 05:02:24;;;;;;;26.53;15.43;;;9.60;99.90;;;;;;5124255;27;20204;-85
2023/05/07 05:04:51;;;;;;;25.80;13.53;;;9.40;99.90;;;;;;5124968;27;20200;-87
2023/05/07 05:07:18;;;;;;;24.57;13.07;;;9.50;99.90;;;;;;5126256;27;20205;-84
2023/05/07 05:09:45;;;;;;;26.23;14.70;;;9.40;99.90;;;;;;5120163;27;20219;-86
2023/05/07 05:12:11;;;;;;;25.80;13.93;;;9.40;99.90;;;;;;5121816;27;20323;-85
2023/05/07 05:14:38;;;;;;;24.20;12.33;;;9.50;99.90;;;;;;5121977;27;20200;-86
2023/05/07 05:17:05;;;;;;;21.33;11.60;;;9.50;99.90;;;;;;5118453;27;20201;-85
2023/05/07 05:19:33;;;;;;;22.60;12.03;;;9.50;99.90;;;;;;5124172;27;20204;-85
2023/05/07 05:22:00;;;;;;;21.03;11.97;;;9.50;99.90;;;;;;5123690;27;20201;-86
2023/05/07 05:24:27;;;;;;;24.60;12.10;;;9.50;99.90;;;;;;5121211;27;20879;-85
2023/05/07 05:26:54;;;;;;;21.47;12.47;;;9.50;99.90;;;;;;5118046;27;20197;-85
2023/05/07 05:29:21;;;;;;;19.77;11.57;;;9.50;99.90;;;;;;5122781;27;20592;-85
2023/05/07 05:31:49;;;;;;;20.70;11.23;;;9.60;99.90;;;;;;5122772;27;20204;-85
2023/05/07 05:34:17;;;;;;;19.50;11.27;;;9.50;99.90;;;;;;5124165;27;20205;-85
2023/05/07 05:36:45;;;;;;;20.60;10.93;;;9.50;99.90;;;;;;5120243;27;20291;-85
2023/05/07 05:39:12;;;;;;;18.80;10.23;;;9.50;99.90;;;;;;5124373;27;20204;-84
2023/05/07 05:41:39;;;;;;;20.83;10.83;;;9.60;99.90;;;;;;5125439;27;20232;-86
2023/05/07 05:44:06;;;;;;;17.50;10.40;;;9.70;99.90;;;;;;5117225;27;20657;-86
2023/05/07 05:46:33;;;;;;;20.30;10.73;;;9.70;99.90;;;;;;5129062;27;20202;-86
2023/05/07 05:49:00;;;;;;;18.93;9.30;;;9.60;99.90;;;;;;5119787;27;20623;-87
2023/05/07 05:51:27;;;;;;;19.20;10.73;;;9.70;99.90;;;;;;5121784;27;20229;-86
2023/05/07 05:53:55;;;;;;;18.50;10.47;;;9.70;99.90;;;;;;5121027;27;20212;-87
2023/05/07 05:56:22;;;;;;;19.03;10.40;;;9.70;99.90;;;;;;5135934;27;20236;-88
2023/05/07 05:58:49;;;;;;;17.83;9.63;;;9.70;99.90;;;;;;5136272;27;20197;-85
2023/05/07 06:01:15;;;;;;;18.00;9.80;;;9.80;99.90;;;;;;5126518;27;20224;-85
2023/05/07 06:03:42;;;;;;;16.93;9.20;;;9.70;99.90;;;;;;5135915;27;20280;-87
2023/05/07 06:06:09;;;;;;;16.80;9.07;;;10.00;99.90;;;;;;5129479;27;20569;-85
2023/05/07 06:08:36;;;;;;;15.90;8.37;;;9.80;99.90;;;;;;5120394;27;20279;-85
2023/05/07 06:11:04;;;;;;;17.40;9.57;;;9.80;99.90;;;;;;5128669;27;20231;-85
2023/05/07 06:13:31;;;;;;;15.83;8.63;;;9.90;99.90;;;;;;5118605;27;20223;-86
2023/05/07 06:15:57;;;;;;;17.50;9.23;;;10.00;99.90;;;;;;5118808;27;20197;-86
2023/05/07 06:18:24;;;;;;;16.90;8.77;;;10.10;99.90;;;;;;5124783;27;20236;-85
2023/05/07 06:20:52;;;;;;;16.03;8.80;;;10.00;99.90;;;;;;5119755;27;20269;-85
2023/05/07 06:23:19;;;;;;;15.33;8.83;;;9.90;99.90;;;;;;5121139;27;20200;-85
2023/05/07 06:25:49;;;;;;;14.60;8.13;;;10.00;99.90;;;;;;5120633;27;20213;-86
2023/05/07 06:28:18;;;;;;;15.53;7.87;;;10.10;99.90;;;;;;5123107;27;20278;-86
2023/05/07 06:30:45;;;;;;;16.13;9.10;;;10.10;99.90;;;;;;5123600;27;20223;-85
2023/05/07 06:33:11;;;;;;;14.53;8.27;;;10.30;99.90;;;;;;5119277;27;20223;-85
2023/05/07 06:35:38;;;;;;;12.50;7.80;;;10.20;99.90;;;;;;5118988;27;20205;-86
2023/05/07 06:38:05;;;;;;;14.60;7.57;;;10.20;99.90;;;;;;5122310;27;20614;-87
2023/05/07 06:40:32;;;;;;;13.97;7.93;;;10.30;99.90;;;;;;5119632;27;20224;-85
2023/05/07 06:43:00;;;;;;;11.93;8.00;;;10.20;99.90;;;;;;5120915;27;20280;-87
2023/05/07 06:45:28;;;;;;;15.43;9.03;;;10.30;99.90;;;;;;5117656;27;20201;-86
2023/05/07 06:47:55;;;;;;;13.00;6.63;;;10.50;99.90;;;;;;5126100;27;20662;-86
2023/05/07 06:50:22;;;;;;;12.33;7.33;;;10.60;99.90;;;;;;5122563;27;20574;-87
2023/05/07 06:52:48;;;;;;;12.57;7.37;;;10.30;99.90;;;;;;5125202;27;20235;-86
2023/05/07 06:55:15;;;;;;;12.47;7.27;;;10.50;99.90;;;;;;5121262;27;20743;-84
2023/05/07 06:57:42;;;;;;;13.47;7.00;;;10.40;99.90;;;;;;5116472;27;20577;-86
2023/05/07 07:00:10;;;;;;;11.43;6.60;;;10.50;99.90;;;;;;5124917;28;20216;-85
2023/05/07 07:02:39;;;;;;;13.93;7.97;;;10.50;99.90;;;;;;5121641;27;20197;-86
2023/05/07 07:05:07;;;;;;;12.83;7.50;;;10.50;99.90;;;;;;5116200;28;20637;-86
2023/05/07 07:07:33;;;;;;;15.67;8.00;;;10.70;99.90;;;;;;5125129;28;20646;-86
2023/05/07 07:10:00;;;;;;;13.23;7.30;;;10.70;99.90;;;;;;5125503;27;20221;-86
2023/05/07 07:12:28;;;;;;;15.53;7.77;;;10.60;99.90;;;;;;5116623;27;20201;-85
2023/05/07 07:14:55;;;;;;;12.63;7.03;;;10.80;99.90;;;;;;5117213;27;20641;-85
2023/05/07 07:17:22;;;;;;;15.27;8.80;;;10.80;99.90;;;;;;5135589;27;20288;-86
2023/05/07 07:19:50;;;;;;;14.33;7.83;;;11.00;99.90;;;;;;5117128;27;20217;-86
2023/05/07 07:22:17;;;;;;;13.87;8.40;;;11.00;99.90;;;;;;5115996;28;20204;-86
2023/05/07 07:24:44;;;;;;;12.47;7.63;;;11.20;99.90;;;;;;5125517;27;20196;-86
2023/05/07 07:27:10;;;;;;;13.87;8.30;;;11.50;99.90;;;;;;5121482;28;20201;-85
2023/05/07 07:29:37;;;;;;;12.80;7.80;;;11.70;99.90;;;;;;5119825;28;20505;-86
2023/05/07 07:32:04;;;;;;;15.70;8.93;;;11.60;99.90;;;;;;5116391;27;20204;-87
2023/05/07 07:34:31;;;;;;;16.23;9.23;;;11.20;99.90;;;;;;5119954;28;20593;-85
2023/05/07 07:37:05;;;;;;;14.63;8.20;;;11.40;99.90;;;;;;5118165;28;20192;-86
2023/05/07 07:39:31;;;;;;;16.27;9.87;;;11.40;99.90;;;;;;5121562;27;20206;-86
2023/05/07 07:41:58;;;;;;;13.43;8.80;;;11.60;99.90;;;;;;5124628;27;20205;-87
2023/05/07 07:44:25;;;;;;;16.20;8.87;;;11.50;99.90;;;;;;5128755;27;20585;-87
2023/05/07 07:46:52;;;;;;;13.90;7.70;;;11.60;99.90;;;;;;5127340;27;20198;-87
2023/05/07 07:49:19;;;;;;;13.93;8.40;;;11.80;99.90;;;;;;5116368;27;20219;-85
2023/05/07 07:51:46;;;;;;;14.13;9.33;;;11.70;99.90;;;;;;5120740;27;20197;-86
2023/05/07 07:54:14;;;;;;;14.63;9.50;;;12.00;99.90;;;;;;5119729;27;20227;-86
2023/05/07 07:56:41;;;;;;;14.37;8.80;;;12.00;99.90;;;;;;5121947;27;20245;-85
2023/05/07 07:59:07;;;;;;;16.77;10.67;;;11.70;99.90;;;;;;5122787;27;20658;-86
2023/05/07 08:01:34;;;;;;;17.17;10.60;;;11.80;99.90;;;;;;5114378;27;20212;-87
2023/05/07 08:04:02;;;;;;;16.53;10.60;;;12.00;99.90;;;;;;5118815;27;20197;-85
2023/05/07 08:06:29;;;;;;;18.50;11.13;;;11.70;99.90;;;;;;5128156;27;20199;-85
2023/05/07 08:08:56;;;;;;;19.20;11.70;;;11.60;99.90;;;;;;5130673;27;20204;-86
2023/05/07 08:11:25;;;;;;;19.37;12.27;;;11.60;99.90;;;;;;5129927;27;20224;-85
2023/05/07 08:13:52;;;;;;;17.80;11.73;;;11.60;99.90;;;;;;5125610;27;20217;-87
2023/05/07 08:16:19;;;;;;;16.90;11.43;;;11.80;99.90;;;;;;5125607;27;20201;-87
2023/05/07 08:18:45;;;;;;;17.67;11.17;;;11.70;99.90;;;;;;5125290;27;20205;-86
2023/05/07 08:21:12;;;;;;;17.60;10.47;;;11.60;99.90;;;;;;5116925;27;20220;-86
2023/05/07 08:23:39;;;;;;;18.33;11.00;;;11.70;99.90;;;;;;5123772;27;20197;-86
2023/05/07 08:26:06;;;;;;;15.80;10.87;;;11.60;99.90;;;;;;5122224;27;20203;-86
2023/05/07 08:28:34;;;;;;;15.87;10.20;;;11.70;99.90;;;;;;5130162;27;20199;-85
2023/05/07 08:31:01;;;;;;;15.17;9.87;;;11.80;99.90;;;;;;5124151;27;20574;-85
2023/05/07 08:33:28;;;;;;;15.97;9.33;;;11.80;99.90;;;;;;5126975;27;20845;-85
2023/05/07 08:35:55;;;;;;;15.57;9.77;;;11.60;99.90;;;;;;5129188;27;20585;-87
2023/05/07 08:38:22;;;;;;;16.17;9.90;;;11.70;99.90;;;;;;5123828;27;20667;-85
2023/05/07 08:40:48;;;;;;;14.83;9.73;;;11.50;99.90;;;;;;5122544;27;20230;-86
2023/05/07 08:43:16;;;;;;;16.20;10.23;;;11.70;99.90;;;;;;5120967;27;20199;-87
2023/05/07 08:45:46;;;;;;;15.13;9.67;;;11.80;99.90;;;;;;5126781;27;20771;-85
2023/05/07 08:48:16;;;;;;;15.23;9.97;;;11.80;99.90;;;;;;5123384;27;20201;-86
2023/05/07 08:50:43;;;;;;;15.83;9.67;;;11.90;99.90;;;;;;5125225;27;20216;-87
2023/05/07 08:53:10;;;;;;;14.80;9.50;;;11.90;99.90;;;;;;5127141;27;20211;-88
2023/05/07 08:55:36;;;;;;;15.07;8.67;;;11.80;99.90;;;;;;5119437;27;20201;-86
2023/05/07 08:58:04;;;;;;;14.23;9.17;;;11.80;99.90;;;;;;5114992;27;20207;-87
2023/05/07 09:00:31;;;;;;;15.67;9.50;;;11.80;99.90;;;;;;5130234;27;20267;-86
2023/05/07 09:02:59;;;;;;;16.00;9.57;;;11.90;99.90;;;;;;5127372;27;20211;-85
2023/05/07 09:05:26;;;;;;;16.30;9.50;;;12.00;99.90;;;;;;5123796;27;20564;-87
2023/05/07 09:07:52;;;;;;;13.03;8.70;;;12.00;99.90;;;;;;5117311;27;20231;-85
2023/05/07 09:10:21;;;;;;;14.93;9.67;;;11.80;99.90;;;;;;5122128;27;20736;-86
2023/05/07 09:12:48;;;;;;;14.47;9.80;;;11.90;99.90;;;;;;5121703;27;20603;-85
2023/05/07 09:15:15;;;;;;;14.70;9.73;;;12.00;99.90;;;;;;5123974;27;20220;-89
2023/05/07 09:17:42;;;;;;;15.80;10.10;;;12.00;99.90;;;;;;5122206;27;20192;-86
2023/05/07 09:20:11;;;;;;;15.67;9.80;;;11.90;99.90;;;;;;5129441;27;20311;-86
2023/05/07 09:22:38;;;;;;;18.27;10.63;;;11.90;99.90;;;;;;5127938;27;20208;-85
2023/05/07 09:25:06;;;;;;;18.67;10.40;;;11.90;99.90;;;;;;5124337;27;20254;-85
2023/05/07 09:27:33;;;;;;;16.33;10.13;;;11.90;99.90;;;;;;5123334;27;20291;-86
2023/05/07 09:30:03;;;;;;;16.83;10.47;;;12.20;99.90;;;;;;5124952;27;20220;-85
2023/05/07 09:32:31;;;;;;;15.90;10.27;;;12.20;99.90;;;;;;5129262;27;20204;-86
2023/05/07 09:34:57;;;;;;;15.40;10.10;;;12.30;99.90;;;;;;5122207;27;20223;-86
2023/05/07 09:37:27;;;;;;;17.60;10.83;;;12.20;99.90;;;;;;5120180;27;20201;-85
2023/05/07 09:39:55;;;;;;;17.83;11.43;;;12.30;99.90;;;;;;5127033;27;20315;-85
2023/05/07 09:42:25;;;;;;;17.33;11.67;;;12.30;99.90;;;;;;5127679;27;20209;-84
2023/05/07 09:44:52;;;;;;;17.87;11.37;;;12.00;99.90;;;;;;5126859;27;20197;-85
2023/05/07 09:47:21;;;;;;;17.67;11.27;;;12.00;99.90;;;;;;5129299;27;20207;-86
2023/05/07 09:49:49;;;;;;;18.13;12.27;;;12.10;99.90;;;;;;5124180;27;20714;-86
2023/05/07 09:52:16;;;;;;;18.50;11.73;;;12.10;99.90;;;;;;5125747;27;20199;-86
2023/05/07 09:54:48;;;;;;;20.03;12.33;;;12.20;99.90;;;;;;5119685;27;20216;-86
2023/05/07 09:57:15;;;;;;;19.77;11.83;;;12.40;99.90;;;;;;5123621;27;20295;-87
2023/05/07 09:59:44;;;;;;;17.37;11.40;;;12.30;99.90;;;;;;5131118;27;20784;-84
2023/05/07 10:02:11;;;;;;;20.03;12.73;;;12.30;99.90;;;;;;5128773;27;20619;-85
2023/05/07 10:04:39;;;;;;;19.70;13.10;;;12.30;99.90;;;;;;5129567;27;20197;-87
2023/05/07 10:07:06;;;;;;;18.03;12.43;;;12.50;99.90;;;;;;5119481;27;20191;-86
2023/05/07 10:09:38;;;;;;;18.50;12.13;;;12.60;99.90;;;;;;5123436;27;20197;-86
2023/05/07 10:12:07;;;;;;;19.10;12.67;;;12.80;99.90;;;;;;5132167;27;20254;-86
2023/05/07 10:14:34;;;;;;;17.73;11.40;;;12.70;99.90;;;;;;5119430;27;20737;-87
2023/05/07 10:17:02;;;;;;;17.58;11.52;;;12.50;99.90;;;;;;5120673;27;20208;-85
2023/05/07 10:19:30;;;;;;;17.20;11.30;;;12.60;99.90;;;;;;5130498;27;20562;-86
2023/05/07 10:22:02;;;;;;;16.93;12.03;;;12.60;99.90;;;;;;5123464;27;20664;-86
2023/05/07 10:24:33;;;;;;;16.97;10.93;;;12.60;99.90;;;;;;5125670;27;20223;-86
2023/05/07 10:27:03;;;;;;;15.93;10.93;;;12.60;99.90;;;;;;5119711;27;20208;-86
2023/05/07 10:29:39;;;;;;;17.73;11.33;;;12.50;99.90;;;;;;5125557;27;20196;-86
2023/05/07 10:32:41;;;;;;;20.52;11.15;;;12.60;99.90;;;;;;5124256;27;20200;-86
2023/05/07 10:35:14;;;;;;;17.83;11.47;;;12.70;99.90;;;;;;5125630;27;20212;-87
2023/05/07 10:37:42;;;;;;;17.67;11.80;;;12.60;99.90;;;;;;5126310;27;20196;-85
2023/05/07 10:40:10;;;;;;;17.17;11.77;;;12.90;99.90;;;;;;5120802;27;20236;-85
2023/05/07 10:42:37;;;;;;;15.90;10.80;;;13.10;99.90;;;;;;5122124;27;20192;-87
2023/05/07 10:45:16;;;;;;;16.63;11.23;;;13.10;99.90;;;;;;5123172;27;20584;-87
2023/05/07 10:48:08;;;;;;;14.90;10.60;;;12.90;99.90;;;;;;5121600;27;20207;-87
2023/05/07 10:50:36;;;;;;;16.58;11.35;;;13.20;99.90;;;;;;5118402;27;20265;-86
2023/05/07 10:53:25;;;;;;;15.23;10.32;;;13.20;99.90;;;;;;5127313;27;20197;-87
2023/05/07 10:56:13;;;;;;;15.40;10.63;;;12.90;99.90;;;;;;5118904;27;20221;-86
2023/05/07 10:58:41;;;;;;;17.47;11.83;;;12.70;99.90;;;;;;5121081;28;20675;-85
2023/05/07 11:01:12;;;;;;;16.00;10.70;;;13.00;99.90;;;;;;5120429;28;20274;-86
2023/05/07 11:04:15;;;;;;;17.00;11.77;;;12.80;99.90;;;;;;5118783;27;20196;-86
2023/05/07 11:06:42;;;;;;;15.40;10.55;;;13.00;99.90;;;;;;5121126;28;20256;-84
2023/05/07 11:09:09;;;;;;;15.20;10.70;;;13.10;99.90;;;;;;5125418;27;20213;-84
2023/05/07 11:11:46;;;;;;;15.83;9.83;;;13.20;99.90;;;;;;5125153;28;20220;-86
2023/05/07 11:14:15;;;;;;;15.60;10.07;;;13.20;99.90;;;;;;5114635;27;20269;-85
2023/05/07 11:16:44;;;;;;;14.13;10.10;;;13.20;99.90;;;;;;5129889;27;20200;-85
2023/05/07 11:19:10;;;;;;;14.53;10.20;;;13.20;99.90;;;;;;5121913;27;20231;-86
2023/05/07 11:21:39;;;;;;;17.20;10.55;;;13.20;99.90;;;;;;5116489;27;20227;-86
2023/05/07 11:24:07;;;;;;;12.85;8.98;;;13.20;99.90;;;;;;5125917;27;20207;-86
2023/05/07 11:26:47;;;;;;;15.23;8.93;;;13.20;99.90;;;;;;5120760;27;20200;-86
2023/05/07 11:29:16;;;;;;;16.13;10.13;;;13.10;99.90;;;;;;5119139;27;20196;-86
2023/05/07 11:31:43;;;;;;;14.43;10.18;;;13.00;99.90;;;;;;5128831;28;20220;-85
2023/05/07 11:34:11;;;;;;;14.30;9.47;;;13.50;99.90;;;;;;5119673;27;20213;-86
2023/05/07 11:36:44;;;;;;;13.55;9.43;;;13.20;99.90;;;;;;5125499;27;20634;-87
2023/05/07 11:39:31;;;;;;;16.67;9.63;;;13.30;99.90;;;;;;5125589;28;20225;-87
2023/05/07 11:41:58;;;;;;;15.27;10.25;;;13.30;99.90;;;;;;5119462;27;20196;-85
2023/05/07 11:44:26;;;;;;;15.20;10.23;;;13.50;99.90;;;;;;5124275;27;20283;-86
2023/05/07 11:46:53;;;;;;;13.83;10.20;;;13.40;99.90;;;;;;5124803;27;20204;-85
2023/05/07 11:49:25;;;;;;;14.20;10.07;;;13.60;99.90;;;;;;5122293;27;21470;-86
2023/05/07 11:51:52;;;;;;;12.73;9.50;;;13.60;99.90;;;;;;5124560;27;20200;-85
2023/05/07 11:54:21;;;;;;;15.20;10.82;;;13.50;99.90;;;;;;5126209;27;20228;-86
2023/05/07 11:56:47;;;;;;;13.77;10.17;;;13.90;99.90;;;;;;5126288;27;20499;-87
2023/05/07 11:59:19;;;;;;;14.30;9.93;;;13.90;99.90;;;;;;5126266;27;20205;-87
2023/05/07 12:01:48;;;;;;;13.10;9.80;;;14.30;99.90;;;;;;5126085;27;20248;-86
2023/05/07 12:04:20;;;;;;;12.95;9.55;;;14.50;99.90;;;;;;5133006;27;20199;-87
2023/05/07 12:06:47;;;;;;;11.82;9.15;;;14.40;99.90;;;;;;5125099;27;20208;-87
2023/05/07 12:09:14;;;;;;;12.18;9.73;;;14.50;99.90;;;;;;5124276;27;20227;-87
2023/05/07 12:11:46;;;;;;;11.68;8.48;;;14.80;99.90;;;;;;5129198;27;20227;-86
2023/05/07 12:14:13;;;;;;;11.27;7.82;;;14.90;99.90;;;;;;5122703;27;20637;-87
2023/05/07 12:16:41;;;;;;;11.73;8.35;;;14.40;99.90;;;;;;5123329;27;20202;-86
2023/05/07 12:19:12;;;;;;;16.42;11.02;;;14.40;99.90;;;;;;5130996;27;20196;-87
2023/05/07 12:21:39;;;;;;;11.70;8.80;;;14.20;99.90;;;;;;5120856;27;20659;-87
2023/05/07 12:24:06;;;;;;;11.13;8.57;;;14.00;99.90;;;;;;5127423;27;20204;-87
2023/05/07 12:26:38;;;;;;;12.55;8.80;;;13.90;99.90;;;;;;5125795;27;20196;-87
2023/05/07 12:29:04;;;;;;;9.77;8.20;;;13.90;99.90;;;;;;5121786;27;20193;-87
2023/05/07 12:31:31;;;;;;;10.90;8.33;;;14.30;99.90;;;;;;5127952;27;20220;-87
2023/05/07 12:33:58;;;;;;;10.90;8.50;;;14.40;99.90;;;;;;5124205;27;20193;-86
2023/05/07 12:36:26;;;;;;;10.90;8.17;;;14.10;99.90;;;;;;5128030;27;20220;-86
2023/05/07 12:38:55;;;;;;;11.27;8.00;;;14.10;99.90;;;;;;5127556;27;20292;-87
2023/05/07 12:41:26;;;;;;;12.20;9.13;;;14.20;99.90;;;;;;5120741;27;20723;-86